Time;durP1;ratioP1;P1;durP2;ratioP2;P2;SDS_P1;SDS_P2;PMS_P1;PMS_P2;Temp;Humidity;BMP_temperature;BMP_pressure;BME280_temperature;BME280_humidity;BME280_pressure;Samples;Min_cycle;Max_cycle;Signal;HPM_P1;HPM_P2
2022/08/30 00:03:53;;;;;;;9.18;5.18;;;;;16.90;101457.00;;;;12786241;23;20186;-79
2022/08/30 00:08:56;;;;;;;12.67;5.03;;;;;17.00;101474.00;;;;12788374;22;20170;-79
2022/08/30 00:13:57;;;;;;;10.70;4.93;;;;;17.00;101466.00;;;;12833938;22;20162;-78
2022/08/30 00:19:00;;;;;;;10.83;5.20;;;;;17.00;101474.00;;;;12789152;22;20683;-79
2022/08/30 00:24:01;;;;;;;11.65;5.20;;;;;17.00;101472.00;;;;12814622;22;20516;-79
2022/08/30 00:29:03;;;;;;;9.13;5.17;;;;;17.00;101478.00;;;;12809984;22;20170;-79
2022/08/30 00:34:04;;;;;;;8.63;5.40;;;;;17.00;101477.00;;;;12789341;22;20657;-79
2022/08/30 00:39:05;;;;;;;9.38;5.57;;;;;17.00;101476.00;;;;12788894;22;21035;-79
2022/08/30 00:44:07;;;;;;;10.37;5.90;;;;;16.90;101471.00;;;;12833958;22;20178;-79
2022/08/30 00:49:11;;;;;;;9.10;5.63;;;;;16.90;101468.00;;;;12813776;23;20174;-79
2022/08/30 00:54:13;;;;;;;14.33;6.20;;;;;16.80;101473.00;;;;12789505;22;20385;-78
2022/08/30 00:59:15;;;;;;;10.00;5.37;;;;;16.80;101476.00;;;;12811641;22;20181;-79
2022/08/30 01:04:18;;;;;;;8.60;5.73;;;;;16.80;101472.00;;;;12812758;22;20806;-79
2022/08/30 01:09:21;;;;;;;10.13;5.60;;;;;16.80;101465.00;;;;12856728;22;20170;-79
2022/08/30 01:14:22;;;;;;;12.83;5.70;;;;;16.80;101470.00;;;;12813615;22;20618;-79
2022/08/30 01:19:53;;;;;;;11.67;6.10;;;;;16.70;101472.00;;;;12836563;22;20174;-79
2022/08/30 01:24:57;;;;;;;12.10;5.93;;;;;16.60;101465.00;;;;12762563;22;20664;-79
2022/08/30 01:29:58;;;;;;;13.10;6.77;;;;;16.50;101467.00;;;;12787516;22;20646;-79
2022/08/30 01:35:00;;;;;;;9.63;6.53;;;;;16.50;101472.00;;;;12833517;22;20176;-79
2022/08/30 01:40:02;;;;;;;13.07;6.50;;;;;16.50;101472.00;;;;12787654;22;20198;-79
2022/08/30 01:45:06;;;;;;;14.20;7.37;;;;;16.60;101473.00;;;;12786683;22;20217;-80
2022/08/30 01:50:09;;;;;;;10.00;6.93;;;;;16.60;101473.00;;;;12833594;22;20186;-80
2022/08/30 01:55:11;;;;;;;13.47;7.00;;;;;16.60;101462.00;;;;12788539;22;20229;-79
2022/08/30 02:00:13;;;;;;;13.33;6.47;;;;;16.50;101468.00;;;;12787749;22;20180;-79
2022/08/30 02:05:14;;;;;;;11.10;6.87;;;;;16.40;101458.00;;;;12787485;22;20205;-79
2022/08/30 02:10:16;;;;;;;10.70;7.00;;;;;16.20;101464.00;;;;12812641;22;20174;-80
2022/08/30 02:15:17;;;;;;;10.00;6.33;;;;;16.10;101456.00;;;;12813347;22;20220;-79
2022/08/30 02:20:19;;;;;;;13.83;7.27;;;;;16.00;101448.00;;;;12787951;22;20182;-79
2022/08/30 02:25:21;;;;;;;18.30;8.20;;;;;15.90;101454.00;;;;12833592;22;20397;-78
2022/08/30 02:30:22;;;;;;;11.03;6.53;;;;;15.80;101447.00;;;;12763399;22;20506;-79
2022/08/30 02:35:24;;;;;;;9.13;7.03;;;;;15.70;101450.00;;;;12813477;22;20762;-79
2022/08/30 02:40:25;;;;;;;15.73;7.07;;;;;15.60;101445.00;;;;12787673;22;20185;-79
2022/08/30 02:45:27;;;;;;;13.47;7.83;;;;;15.50;101441.00;;;;12787555;22;20266;-79
2022/08/30 02:50:30;;;;;;;14.37;7.57;;;;;15.40;101435.00;;;;12858901;22;20234;-79
2022/08/30 02:55:31;;;;;;;12.03;7.37;;;;;15.30;101436.00;;;;12787940;22;20821;-79
2022/08/30 03:00:33;;;;;;;15.23;8.40;;;;;15.30;101428.00;;;;12834276;22;20483;-79
2022/08/30 03:05:34;;;;;;;16.40;7.13;;;;;15.20;101429.00;;;;12811949;22;20198;-79
2022/08/30 03:10:38;;;;;;;13.77;7.20;;;;;15.10;101436.00;;;;12763325;22;20262;-80
2022/08/30 03:15:40;;;;;;;11.87;7.10;;;;;15.00;101438.00;;;;12787584;22;20177;-79
2022/08/30 03:20:42;;;;;;;12.47;7.57;;;;;14.90;101432.00;;;;12788520;22;20167;-79
2022/08/30 03:25:49;;;;;;;15.10;7.63;;;;;14.90;101434.00;;;;12812686;22;20285;-79
2022/08/30 03:30:50;;;;;;;11.80;7.37;;;;;14.80;101446.00;;;;12812842;22;20182;-79
2022/08/30 03:35:51;;;;;;;9.93;7.47;;;;;14.80;101447.00;;;;12790472;22;20194;-80
2022/08/30 03:40:53;;;;;;;13.10;7.63;;;;;14.80;101444.00;;;;12862140;22;20176;-79
2022/08/30 03:45:54;;;;;;;9.27;7.30;;;;;14.90;101442.00;;;;12792922;22;20225;-80
2022/08/30 03:50:56;;;;;;;13.60;7.53;;;;;15.00;101439.00;;;;12767336;22;20179;-79
2022/08/30 03:55:57;;;;;;;11.33;8.20;;;;;15.00;101434.00;;;;12810162;22;20167;-79
2022/08/30 04:00:59;;;;;;;13.03;7.73;;;;;14.90;101437.00;;;;12811769;22;20221;-79
2022/08/30 04:06:00;;;;;;;14.97;8.87;;;;;14.90;101440.00;;;;12834142;22;20268;-79
2022/08/30 04:11:02;;;;;;;14.80;8.53;;;;;14.90;101440.00;;;;12765423;23;20553;-79
2022/08/30 04:16:05;;;;;;;14.00;8.77;;;;;14.90;101442.00;;;;12789450;22;20171;-79
2022/08/30 04:21:07;;;;;;;10.83;8.43;;;;;14.90;101443.00;;;;12811274;22;20216;-79
2022/08/30 04:26:14;;;;;;;13.10;8.33;;;;;14.90;101443.00;;;;12789755;22;20221;-79
2022/08/30 04:31:17;;;;;;;14.43;8.87;;;;;14.90;101448.00;;;;12790865;22;20379;-78
2022/08/30 04:36:19;;;;;;;13.47;8.93;;;;;14.90;101451.00;;;;12790861;22;20191;-79
2022/08/30 04:41:23;;;;;;;13.17;8.50;;;;;15.00;101449.00;;;;12791965;22;20205;-79
2022/08/30 04:46:24;;;;;;;16.90;9.13;;;;;15.00;101457.00;;;;12815508;22;20794;-79
2022/08/30 04:51:25;;;;;;;15.83;9.10;;;;;14.90;101458.00;;;;12860196;22;20369;-78
2022/08/30 04:56:27;;;;;;;12.07;8.97;;;;;14.90;101461.00;;;;12788944;22;20178;-79
2022/08/30 05:01:31;;;;;;;14.30;8.50;;;;;15.00;101465.00;;;;12765425;22;20474;-79
2022/08/30 05:06:45;;;;;;;14.60;9.13;;;;;15.00;101467.00;;;;12816549;22;20194;-79
2022/08/30 05:11:46;;;;;;;13.93;9.23;;;;;15.00;101472.00;;;;12856919;22;20716;-79
2022/08/30 05:16:48;;;;;;;15.20;9.90;;;;;15.00;101478.00;;;;12811264;22;20795;-80
2022/08/30 05:21:49;;;;;;;14.80;9.07;;;;;15.10;101485.00;;;;12808210;22;20164;-79
2022/08/30 05:26:51;;;;;;;12.47;8.63;;;;;15.20;101477.00;;;;12796795;22;20197;-80
2022/08/30 05:31:52;;;;;;;13.57;9.37;;;;;15.30;101487.00;;;;12813229;22;20180;-79
2022/08/30 05:36:53;;;;;;;18.70;9.67;;;;;15.50;101482.00;;;;12813259;22;20239;-79
2022/08/30 05:41:58;;;;;;;11.53;9.00;;;;;15.90;101487.00;;;;12816039;22;20442;-78
2022/08/30 05:47:00;;;;;;;15.53;9.70;;;;;16.30;101484.00;;;;12833803;22;20197;-79
2022/08/30 05:52:03;;;;;;;12.67;9.27;;;;;16.70;101476.00;;;;12788652;22;20193;-80
2022/08/30 05:57:04;;;;;;;13.23;9.63;;;;;17.00;101463.00;;;;12858988;22;20166;-79
2022/08/30 06:02:06;;;;;;;17.30;8.37;;;;;17.30;101465.00;;;;12812059;22;20170;-79
2022/08/30 06:07:07;;;;;;;13.03;9.63;;;;;17.70;101477.00;;;;12832773;22;20722;-79
2022/08/30 06:12:13;;;;;;;12.98;8.80;;;;;18.00;101466.00;;;;12787158;22;20347;-79
2022/08/30 06:17:14;;;;;;;12.68;9.52;;;;;18.10;101471.00;;;;12811157;22;20170;-79
2022/08/30 06:22:16;;;;;;;13.38;9.02;;;;;18.30;101470.00;;;;12847705;22;20879;-80
2022/08/30 06:27:17;;;;;;;10.25;8.75;;;;;18.60;101469.00;;;;12834045;22;20209;-79
2022/08/30 06:32:18;;;;;;;17.05;9.18;;;;;18.60;101466.00;;;;12786824;22;20654;-79
2022/08/30 06:37:20;;;;;;;10.57;8.82;;;;;18.70;101467.00;;;;12836904;22;20205;-79
2022/08/30 06:42:32;;;;;;;14.05;9.43;;;;;18.90;101462.00;;;;12788988;22;20201;-79
2022/08/30 06:47:33;;;;;;;17.23;8.80;;;;;19.10;101466.00;;;;12812162;22;20244;-78
2022/08/30 06:52:34;;;;;;;12.73;8.77;;;;;19.30;101468.00;;;;12739051;22;20170;-79
2022/08/30 06:57:36;;;;;;;14.52;9.00;;;;;19.50;101472.00;;;;12785972;22;20269;-79
2022/08/30 07:02:38;;;;;;;13.38;9.50;;;;;19.70;101479.00;;;;12786355;22;20205;-80
2022/08/30 07:07:40;;;;;;;11.15;8.60;;;;;20.00;101475.00;;;;12833410;22;20208;-79
2022/08/30 07:12:41;;;;;;;13.95;8.85;;;;;20.20;101473.00;;;;12814835;22;20905;-79
2022/08/30 07:23:02;;;;;;;14.85;8.60;;;;;20.60;101457.00;;;;12788589;22;20196;-79
2022/08/30 07:28:05;;;;;;;11.20;8.75;;;;;21.00;101469.00;;;;12836088;22;20285;-80
2022/08/30 07:33:06;;;;;;;11.60;7.80;;;;;21.50;101461.00;;;;12789413;22;20180;-79
2022/08/30 07:38:13;;;;;;;8.93;8.05;;;;;21.70;101466.00;;;;12835378;22;20192;-80
2022/08/30 07:43:14;;;;;;;16.60;8.35;;;;;21.80;101456.00;;;;12815089;22;20162;-79
2022/08/30 07:48:15;;;;;;;11.25;7.53;;;;;22.10;101469.00;;;;12791185;22;20201;-79
2022/08/30 07:53:16;;;;;;;9.23;7.50;;;;;22.50;101466.00;;;;12791267;22;20178;-80
2022/08/30 07:58:18;;;;;;;10.35;8.25;;;;;22.40;101452.00;;;;12834515;22;20166;-79
2022/08/30 08:03:20;;;;;;;9.82;6.88;;;;;22.60;101454.00;;;;12792137;22;20170;-80
2022/08/30 08:08:22;;;;;;;13.02;7.55;;;;;22.80;101459.00;;;;12836272;22;20185;-80
2022/08/30 08:13:23;;;;;;;9.57;6.78;;;;;23.00;101466.00;;;;12812909;22;20213;-80
2022/08/30 08:18:30;;;;;;;16.05;6.90;;;;;23.30;101463.00;;;;12814597;22;20269;-80
2022/08/30 08:23:31;;;;;;;7.97;6.22;;;;;23.70;101464.00;;;;12815704;22;20240;-80
2022/08/30 08:28:33;;;;;;;10.00;6.80;;;;;23.80;101455.00;;;;12791576;22;20716;-80
2022/08/30 08:33:34;;;;;;;9.40;6.07;;;;;24.20;101457.00;;;;12838290;22;20166;-80
2022/08/30 08:38:35;;;;;;;11.65;6.00;;;;;24.80;101454.00;;;;12817896;22;20193;-80
2022/08/30 08:43:40;;;;;;;7.63;5.93;;;;;25.50;101457.00;;;;12842587;22;20204;-80
2022/08/30 08:48:48;;;;;;;7.78;5.40;;;;;25.80;101461.00;;;;12790999;22;20206;-80
2022/08/30 08:54:07;;;;;;;11.18;5.75;;;;;25.70;101456.00;;;;12815125;22;20177;-80
2022/08/30 08:59:10;;;;;;;8.82;5.35;;;;;25.90;101450.00;;;;12815328;22;20232;-80
2022/08/30 09:04:16;;;;;;;9.07;5.05;;;;;26.10;101452.00;;;;12835796;22;20497;-80
2022/08/30 09:09:30;;;;;;;10.32;4.90;;;;;26.90;101465.00;;;;12791026;22;20603;-79
2022/08/30 09:14:40;;;;;;;8.70;4.72;;;;;27.30;101458.00;;;;12810407;22;20177;-79
2022/08/30 09:19:50;;;;;;;8.68;4.95;;;;;27.40;101447.00;;;;12860644;22;20170;-80
2022/08/30 09:24:59;;;;;;;6.60;4.15;;;;;27.40;101448.00;;;;12837655;22;20197;-79
2022/08/30 09:30:03;;;;;;;9.20;4.32;;;;;27.50;101447.00;;;;12811227;22;20169;-80
2022/08/30 09:35:10;;;;;;;4.85;3.90;;;;;27.70;101443.00;;;;12790574;22;20225;-80
2022/08/30 09:40:20;;;;;;;8.48;4.65;;;;;27.80;101446.00;;;;12839103;22;20262;-80
2022/08/30 09:45:30;;;;;;;7.43;4.03;;;;;27.30;101452.00;;;;12789921;22;20194;-79
2022/08/30 09:50:35;;;;;;;9.68;4.47;;;;;27.10;101447.00;;;;12812423;22;20437;-80
2022/08/30 09:55:36;;;;;;;5.07;3.47;;;;;27.90;101439.00;;;;12834614;22;20654;-80
2022/08/30 10:00:55;;;;;;;7.45;3.30;;;;;27.80;101441.00;;;;12789691;22;20239;-77
2022/08/30 10:06:33;;;;;;;10.77;3.45;;;;;28.10;101432.00;;;;12813735;22;20308;-80
2022/08/30 10:11:46;;;;;;;5.85;3.33;;;;;28.20;101428.00;;;;12725084;22;20177;-80
2022/08/30 10:16:57;;;;;;;6.13;3.20;;;;;28.70;101431.00;;;;12764958;22;20197;-80
2022/08/30 10:22:17;;;;;;;8.43;3.70;;;;;29.50;101432.00;;;;12815116;22;20898;-81
2022/08/30 10:27:56;;;;;;;8.35;3.20;;;;;29.60;101430.00;;;;12765770;23;20194;-80
2022/08/30 10:33:09;;;;;;;7.32;3.00;;;;;29.40;101429.00;;;;12780824;22;20783;-81
2022/08/30 10:38:23;;;;;;;7.28;3.55;;;;;29.10;101431.00;;;;12765294;22;20224;-80
2022/08/30 10:43:27;;;;;;;5.32;3.40;;;;;29.80;101421.00;;;;12862864;22;20648;-80
2022/08/30 10:48:36;;;;;;;7.43;3.50;;;;;31.00;101423.00;;;;12863713;22;20204;-80
2022/08/30 10:53:44;;;;;;;4.93;3.67;;;;;30.90;101410.00;;;;12792438;22;20240;-80
2022/08/30 10:58:46;;;;;;;5.78;3.10;;;;;31.30;101394.00;;;;12791109;22;20529;-79
2022/08/30 11:04:21;;;;;;;11.13;3.95;;;;;31.80;101397.00;;;;12863255;22;20172;-81
2022/08/30 11:09:34;;;;;;;8.98;3.40;;;;;30.70;101406.00;;;;12790867;22;20185;-80
2022/08/30 11:14:42;;;;;;;7.97;3.60;;;;;30.90;101405.00;;;;12791678;22;20178;-80
2022/08/30 11:19:44;;;;;;;6.40;3.17;;;;;30.80;101404.00;;;;12815773;22;20174;-81
2022/08/30 11:25:10;;;;;;;6.97;3.42;;;;;30.70;101400.00;;;;12861781;22;20260;-80
2022/08/30 11:30:24;;;;;;;8.35;3.72;;;;;31.50;101389.00;;;;12791327;22;20170;-80
2022/08/30 11:35:48;;;;;;;6.93;3.10;;;;;32.60;101392.00;;;;12792124;22;20308;-79
2022/08/30 11:40:53;;;;;;;8.48;3.35;;;;;31.80;101397.00;;;;12816567;22;20384;-80
2022/08/30 11:46:12;;;;;;;8.35;3.10;;;;;31.20;101394.00;;;;12817560;22;20202;-81
2022/08/30 11:51:37;;;;;;;6.30;3.15;;;;;31.70;101401.00;;;;12818291;22;20170;-80
2022/08/30 11:56:53;;;;;;;5.97;3.22;;;;;31.50;101388.00;;;;12838744;22;20801;-80
2022/08/30 12:01:56;;;;;;;5.63;3.08;;;;;32.10;101398.00;;;;12792522;22;20673;-80
2022/08/30 12:07:05;;;;;;;4.45;3.00;;;;;31.90;101383.00;;;;12838094;22;20197;-80
2022/08/30 12:12:08;;;;;;;9.23;3.60;;;;;31.10;101385.00;;;;12816334;22;20224;-80
2022/08/30 12:22:41;;;;;;;5.13;2.92;;;;;32.50;101400.00;;;;12816481;22;20174;-81
2022/08/30 12:27:42;;;;;;;6.75;3.40;;;;;32.50;101389.00;;;;12814893;22;20273;-80
2022/08/30 12:32:46;;;;;;;7.38;3.42;;;;;31.30;101385.00;;;;12836496;22;20177;-79
2022/08/30 12:37:59;;;;;;;11.57;3.20;;;;;32.50;101373.00;;;;12790255;22;20268;-79
2022/08/30 12:43:04;;;;;;;4.78;2.80;;;;;32.90;101373.00;;;;12791807;22;20654;-80
2022/08/30 12:48:13;;;;;;;6.10;2.80;;;;;33.70;101373.00;;;;12766832;22;20191;-80
2022/08/30 12:53:36;;;;;;;6.07;2.95;;;;;33.60;101362.00;;;;12815106;22;20181;-80
2022/08/30 12:58:50;;;;;;;8.73;2.63;;;;;33.00;101364.00;;;;12815108;22;20166;-80
2022/08/30 13:04:02;;;;;;;5.07;2.70;;;;;31.80;101359.00;;;;12816630;22;20370;-81
2022/08/30 13:09:03;;;;;;;3.88;2.60;;;;;31.70;101343.00;;;;12815042;22;20178;-80
2022/08/30 13:14:37;;;;;;;6.05;2.58;;;;;33.20;101338.00;;;;12789949;22;20224;-79
2022/08/30 13:20:04;;;;;;;4.75;2.70;;;;;34.30;101346.00;;;;12817181;22;20253;-80
2022/08/30 13:25:08;;;;;;;8.30;2.70;;;;;30.50;101344.00;;;;12792948;22;20197;-81
2022/08/30 13:30:13;;;;;;;5.57;2.78;;;;;30.40;101340.00;;;;12838003;22;20165;-79
2022/08/30 13:35:15;;;;;;;7.43;2.60;;;;;33.70;101336.00;;;;12791714;22;20270;-80
2022/08/30 13:40:20;;;;;;;3.38;2.60;;;;;34.20;101324.00;;;;12836902;22;20522;-81
2022/08/30 13:45:21;;;;;;;10.00;2.83;;;;;35.60;101325.00;;;;12817410;22;20725;-81
2022/08/30 13:50:43;;;;;;;10.55;2.75;;;;;35.80;101323.00;;;;12863668;22;20257;-79
2022/08/30 13:55:44;;;;;;;5.15;2.30;;;;;36.80;101330.00;;;;12795425;22;20166;-79
2022/08/30 14:00:46;;;;;;;6.38;2.60;;;;;36.70;101321.00;;;;12815825;22;20193;-80
2022/08/30 14:05:47;;;;;;;3.72;2.10;;;;;36.30;101331.00;;;;12818636;22;20198;-80
2022/08/30 14:10:51;;;;;;;9.00;2.38;;;;;36.90;101318.00;;;;12796766;22;20185;-80
2022/08/30 14:15:53;;;;;;;6.30;2.05;;;;;35.90;101333.00;;;;12788300;22;20220;-80
2022/08/30 14:21:15;;;;;;;5.78;2.60;;;;;30.80;101334.00;;;;12815865;22;20166;-79
2022/08/30 14:26:22;;;;;;;4.85;2.80;;;;;28.70;101326.00;;;;12816189;23;20198;-78
2022/08/30 14:31:23;;;;;;;4.25;2.20;;;;;28.60;101307.00;;;;12791218;22;20236;-78
2022/08/30 14:36:25;;;;;;;8.40;2.50;;;;;33.60;101289.00;;;;12860491;22;20210;-78
2022/08/30 14:41:26;;;;;;;6.75;2.20;;;;;35.60;101295.00;;;;12835142;22;20163;-78
2022/08/30 14:46:28;;;;;;;3.55;2.10;;;;;37.20;101306.00;;;;12789687;22;20661;-78
2022/08/30 14:51:29;;;;;;;7.70;2.28;;;;;36.50;101319.00;;;;12836258;22;20262;-78
2022/08/30 14:56:30;;;;;;;10.88;2.50;;;;;34.10;101318.00;;;;12833747;22;20257;-78
2022/08/30 15:01:32;;;;;;;5.18;1.73;;;;;32.40;101317.00;;;;12834630;22;20162;-78
2022/08/30 15:06:39;;;;;;;5.70;2.08;;;;;31.00;101321.00;;;;12837865;22;20510;-78
2022/08/30 15:11:42;;;;;;;2.70;2.03;;;;;30.70;101326.00;;;;12765208;22;20257;-79
2022/08/30 15:16:44;;;;;;;3.88;2.20;;;;;29.80;101307.00;;;;12859166;22;20533;-79
2022/08/30 15:21:50;;;;;;;4.03;2.38;;;;;29.30;101304.00;;;;12814459;22;20182;-78
2022/08/30 15:26:52;;;;;;;5.15;2.42;;;;;29.10;101305.00;;;;12787547;22;20190;-78
2022/08/30 15:31:53;;;;;;;6.95;2.63;;;;;28.80;101301.00;;;;12791164;22;20171;-79
2022/08/30 15:36:56;;;;;;;7.07;2.92;;;;;28.60;101291.00;;;;12789580;22;20200;-79
2022/08/30 15:41:57;;;;;;;6.10;2.22;;;;;28.70;101288.00;;;;12815273;22;20421;-79
2022/08/30 15:47:02;;;;;;;5.82;1.95;;;;;28.60;101291.00;;;;12790213;22;20276;-78
2022/08/30 15:52:04;;;;;;;5.65;1.88;;;;;28.40;101278.00;;;;12790710;22;20197;-79
2022/08/30 15:57:08;;;;;;;5.97;1.65;;;;;27.90;101279.00;;;;12790480;22;20198;-80
2022/08/30 16:02:09;;;;;;;6.45;2.28;;;;;27.60;101285.00;;;;12863496;22;20162;-81
2022/08/30 16:07:11;;;;;;;6.13;1.92;;;;;27.60;101284.00;;;;12754342;22;20201;-79
2022/08/30 16:12:12;;;;;;;5.00;2.08;;;;;27.50;101281.00;;;;12809991;22;20247;-81
2022/08/30 16:17:24;;;;;;;3.10;1.85;;;;;27.30;101286.00;;;;12766246;22;20167;-79
2022/08/30 16:22:26;;;;;;;3.85;1.85;;;;;27.30;101280.00;;;;12815490;22;20883;-79
2022/08/30 16:27:27;;;;;;;3.85;1.90;;;;;27.10;101279.00;;;;12797878;22;21034;-78
2022/08/30 16:32:29;;;;;;;3.92;1.73;;;;;26.80;101288.00;;;;12806300;22;20518;-79
2022/08/30 16:37:30;;;;;;;3.97;1.90;;;;;26.40;101282.00;;;;12764381;22;20807;-80
2022/08/30 16:42:32;;;;;;;8.50;1.70;;;;;26.20;101291.00;;;;12786481;22;20220;-79
2022/08/30 16:47:34;;;;;;;3.83;1.70;;;;;26.10;101298.00;;;;12759773;22;20201;-79
2022/08/30 16:52:36;;;;;;;2.17;1.70;;;;;26.00;101299.00;;;;12788244;22;20182;-80
2022/08/30 16:57:37;;;;;;;5.38;2.45;;;;;25.80;101295.00;;;;12812030;22;20228;-80
2022/08/30 17:02:40;;;;;;;6.75;1.90;;;;;25.60;101295.00;;;;12787011;22;20170;-80
2022/08/30 17:07:54;;;;;;;6.13;1.80;;;;;25.50;101291.00;;;;12791884;22;20202;-79
2022/08/30 17:12:56;;;;;;;3.83;1.48;;;;;25.40;101295.00;;;;12788691;22;20202;-79
2022/08/30 17:17:58;;;;;;;8.60;2.22;;;;;25.30;101302.00;;;;12790471;22;20178;-79
2022/08/30 17:22:59;;;;;;;3.53;1.80;;;;;25.00;101303.00;;;;12788764;22;20170;-79
2022/08/30 17:28:04;;;;;;;4.53;1.98;;;;;24.80;101311.00;;;;12783866;22;20198;-77
2022/08/30 17:33:07;;;;;;;5.93;2.03;;;;;24.70;101317.00;;;;12806558;22;20261;-77
2022/08/30 17:38:08;;;;;;;6.55;1.73;;;;;24.60;101315.00;;;;12806957;22;20181;-78
2022/08/30 17:43:12;;;;;;;4.28;1.67;;;;;24.50;101334.00;;;;12762659;22;20201;-78
2022/08/30 17:48:14;;;;;;;5.50;1.80;;;;;24.40;101333.00;;;;12813501;22;20410;-79
2022/08/30 17:53:16;;;;;;;5.07;1.90;;;;;24.20;101338.00;;;;12838677;22;20170;-77
2022/08/30 17:58:17;;;;;;;2.85;1.85;;;;;24.00;101340.00;;;;12861082;22;20205;-78
2022/08/30 18:03:22;;;;;;;5.28;1.88;;;;;23.70;101341.00;;;;12787778;22;20182;-77
2022/08/30 18:08:24;;;;;;;3.38;1.60;;;;;23.50;101343.00;;;;12833575;22;20198;-78
2022/08/30 18:13:26;;;;;;;4.45;1.52;;;;;23.30;101363.00;;;;12809616;22;20177;-78
2022/08/30 18:18:29;;;;;;;5.85;2.03;;;;;23.10;101368.00;;;;12812048;22;20227;-77
2022/08/30 18:23:31;;;;;;;4.63;1.70;;;;;22.90;101377.00;;;;12786813;22;20451;-77
2022/08/30 18:28:33;;;;;;;5.45;1.77;;;;;22.70;101379.00;;;;12808683;22;20695;-78
2022/08/30 18:33:35;;;;;;;5.32;1.67;;;;;22.60;101388.00;;;;12809708;22;20196;-77
2022/08/30 18:38:37;;;;;;;4.75;1.75;;;;;22.40;101382.00;;;;12784377;22;20198;-78
2022/08/30 18:43:39;;;;;;;3.67;1.50;;;;;22.30;101394.00;;;;12809994;22;20182;-78
2022/08/30 18:48:43;;;;;;;4.20;1.92;;;;;22.20;101395.00;;;;12834112;22;20194;-78
2022/08/30 18:53:46;;;;;;;4.30;1.42;;;;;22.00;101401.00;;;;12813857;22;20201;-78
2022/08/30 18:58:47;;;;;;;3.53;1.25;;;;;21.90;101405.00;;;;12858339;22;20166;-77
2022/08/30 19:03:56;;;;;;;3.80;1.40;;;;;21.80;101409.00;;;;12782800;22;20889;-77
2022/08/30 19:09:03;;;;;;;3.03;1.50;;;;;21.70;101423.00;;;;12833714;22;20194;-78
2022/08/30 19:14:10;;;;;;;5.47;1.75;;;;;21.60;101428.00;;;;12860643;22;20304;-77
2022/08/30 19:19:14;;;;;;;5.57;1.63;;;;;21.60;101426.00;;;;12792683;22;20174;-77
2022/08/30 19:24:15;;;;;;;3.15;1.58;;;;;21.40;101424.00;;;;12794145;22;20265;-77
2022/08/30 19:29:19;;;;;;;7.85;2.50;;;;;21.30;101434.00;;;;12843125;22;20594;-77
2022/08/30 19:34:20;;;;;;;3.50;1.35;;;;;21.20;101440.00;;;;12790806;22;20676;-77
2022/08/30 19:39:23;;;;;;;5.93;1.30;;;;;21.00;101442.00;;;;12807699;22;20708;-78
2022/08/30 19:44:24;;;;;;;3.03;1.55;;;;;20.80;101442.00;;;;12835825;22;20169;-77
2022/08/30 19:49:25;;;;;;;6.30;1.92;;;;;20.70;101442.00;;;;12865209;22;20166;-77
2022/08/30 19:54:27;;;;;;;3.55;1.70;;;;;20.50;101452.00;;;;12839645;22;20264;-77
2022/08/30 19:59:28;;;;;;;3.85;1.70;;;;;20.40;101448.00;;;;12791387;22;20170;-77
2022/08/30 20:04:32;;;;;;;4.88;1.92;;;;;20.20;101458.00;;;;12792403;22;20174;-77
2022/08/30 20:09:33;;;;;;;3.25;1.70;;;;;20.10;101447.00;;;;12815885;22;20178;-77
2022/08/30 20:14:37;;;;;;;5.80;1.85;;;;;20.00;101463.00;;;;12841137;22;20190;-77
2022/08/30 20:19:39;;;;;;;3.17;1.70;;;;;19.90;101463.00;;;;12816245;22;20181;-78
2022/08/30 20:24:40;;;;;;;3.95;1.40;;;;;19.80;101465.00;;;;12766981;22;20254;-77
2022/08/30 20:29:45;;;;;;;3.05;1.77;;;;;19.70;101464.00;;;;12793089;22;20750;-77
2022/08/30 20:34:47;;;;;;;3.35;1.80;;;;;19.70;101463.00;;;;12791100;22;20181;-77
2022/08/30 20:39:49;;;;;;;1.80;1.40;;;;;19.60;101458.00;;;;12816966;22;20201;-78
2022/08/30 20:44:52;;;;;;;2.88;1.80;;;;;19.60;101466.00;;;;12861234;22;20246;-78
2022/08/30 20:49:53;;;;;;;5.38;1.80;;;;;19.50;101464.00;;;;12764743;22;20744;-77
2022/08/30 20:54:54;;;;;;;5.50;1.60;;;;;19.40;101470.00;;;;12788198;22;20174;-77
2022/08/30 20:59:59;;;;;;;5.65;1.83;;;;;19.30;101471.00;;;;12789461;22;20174;-77
2022/08/30 21:05:02;;;;;;;4.57;1.50;;;;;19.30;101472.00;;;;12789089;22;20200;-78
2022/08/30 21:10:07;;;;;;;3.78;1.77;;;;;19.30;101473.00;;;;12862719;22;20228;-78
2022/08/30 21:15:09;;;;;;;8.07;1.85;;;;;19.30;101468.00;;;;12791240;22;20408;-77
2022/08/30 21:20:31;;;;;;;2.67;1.70;;;;;19.30;101471.00;;;;12793051;22;20380;-77
2022/08/30 21:25:36;;;;;;;4.78;1.50;;;;;19.20;101473.00;;;;12766691;22;20609;-78
2022/08/30 21:30:37;;;;;;;4.50;1.58;;;;;19.10;101460.00;;;;12789510;22;20258;-78
2022/08/30 21:40:59;;;;;;;7.22;1.77;;;;;19.00;101469.00;;;;12790223;22;20184;-77
2022/08/30 21:46:05;;;;;;;4.88;1.65;;;;;18.90;101476.00;;;;12816146;22;20762;-77
2022/08/30 21:51:09;;;;;;;2.80;1.80;;;;;18.80;101478.00;;;;12862355;22;20162;-77
2022/08/30 21:56:16;;;;;;;3.20;1.63;;;;;18.70;101481.00;;;;12863710;22;20162;-78
2022/08/30 22:01:25;;;;;;;3.55;1.40;;;;;18.60;101479.00;;;;12791238;22;20178;-78
2022/08/30 22:06:28;;;;;;;3.28;1.40;;;;;18.60;101479.00;;;;12765223;22;20586;-78
2022/08/30 22:11:33;;;;;;;4.38;1.83;;;;;18.50;101494.00;;;;12812932;22;20174;-78
2022/08/30 22:16:36;;;;;;;2.45;1.40;;;;;18.40;101484.00;;;;12837182;22;20163;-78
2022/08/30 22:21:40;;;;;;;2.45;1.60;;;;;18.30;101490.00;;;;12837366;22;20782;-78
2022/08/30 22:26:44;;;;;;;3.70;1.52;;;;;18.20;101488.00;;;;12765397;22;20790;-78
2022/08/30 22:31:45;;;;;;;4.57;1.65;;;;;18.00;101486.00;;;;12816310;22;20196;-78
2022/08/30 22:36:47;;;;;;;2.95;1.50;;;;;18.00;101482.00;;;;12790828;22;20747;-78
2022/08/30 22:41:49;;;;;;;5.43;1.23;;;;;17.90;101485.00;;;;12791899;22;20170;-78
2022/08/30 22:46:50;;;;;;;3.80;1.60;;;;;17.80;101480.00;;;;12839692;22;20376;-78
2022/08/30 22:51:51;;;;;;;1.67;1.48;;;;;17.70;101485.00;;;;12791265;22;20197;-78
2022/08/30 22:56:53;;;;;;;3.35;1.50;;;;;17.70;101476.00;;;;12836195;22;20379;-78
2022/08/30 23:01:55;;;;;;;3.03;1.83;;;;;17.60;101480.00;;;;12791859;22;20181;-78
2022/08/30 23:06:56;;;;;;;4.35;1.30;;;;;17.60;101484.00;;;;12861802;22;20615;-77
2022/08/30 23:11:58;;;;;;;1.98;1.42;;;;;17.50;101484.00;;;;12768277;22;20201;-77
2022/08/30 23:16:59;;;;;;;2.33;1.88;;;;;17.40;101479.00;;;;12861836;22;20228;-77
2022/08/30 23:22:00;;;;;;;3.40;1.50;;;;;17.30;101486.00;;;;12815631;22;20747;-77
